sensor_id;sensor_type;location;lat;lon;timestamp;P1;durP1;ratioP1;P2;durP2;ratioP2
20397;SDS011;10358;49.590;11.030;2023-05-07T00:02:20;4.53;;;3.20;;
20397;SDS011;10358;49.590;11.030;2023-05-07T00:04:46;5.67;;;2.70;;
20397;SDS011;10358;49.590;11.030;2023-05-07T00:07:11;5.10;;;3.23;;
20397;SDS011;10358;49.590;11.030;2023-05-07T00:09:37;7.13;;;2.90;;
20397;SDS011;10358;49.590;11.030;2023-05-07T00:12:03;4.47;;;3.20;;
20397;SDS011;10358;49.590;11.030;2023-05-07T00:14:28;6.00;;;3.30;;
20397;SDS011;10358;49.590;11.030;2023-05-07T00:16:54;8.37;;;3.30;;
20397;SDS011;10358;49.590;11.030;2023-05-07T00:19:20;3.57;;;2.70;;
20397;SDS011;10358;49.590;11.030;2023-05-07T00:21:46;6.23;;;3.30;;
20397;SDS011;10358;49.590;11.030;2023-05-07T00:24:11;4.97;;;3.13;;
20397;SDS011;10358;49.590;11.030;2023-05-07T00:26:37;7.67;;;3.00;;
20397;SDS011;10358;49.590;11.030;2023-05-07T00:29:02;6.13;;;3.40;;
20397;SDS011;10358;49.590;11.030;2023-05-07T00:31:28;4.70;;;3.10;;
20397;SDS011;10358;49.590;11.030;2023-05-07T00:33:54;7.63;;;3.10;;
20397;SDS011;10358;49.590;11.030;2023-05-07T00:36:19;6.70;;;3.57;;
20397;SDS011;10358;49.590;11.030;2023-05-07T00:38:45;4.87;;;3.00;;
20397;SDS011;10358;49.590;11.030;2023-05-07T00:41:10;8.33;;;3.40;;
20397;SDS011;10358;49.590;11.030;2023-05-07T00:43:36;6.10;;;3.03;;
20397;SDS011;10358;49.590;11.030;2023-05-07T00:46:01;8.27;;;3.20;;
20397;SDS011;10358;49.590;11.030;2023-05-07T00:48:27;5.27;;;3.03;;
20397;SDS011;10358;49.590;11.030;2023-05-07T00:50:52;6.10;;;3.40;;
20397;SDS011;10358;49.590;11.030;2023-05-07T00:53:18;7.23;;;3.00;;
20397;SDS011;10358;49.590;11.030;2023-05-07T00:55:44;5.13;;;3.20;;
20397;SDS011;10358;49.590;11.030;2023-05-07T00:58:10;4.60;;;3.27;;
20397;SDS011;10358;49.590;11.030;2023-05-07T01:00:35;6.07;;;3.10;;
20397;SDS011;10358;49.590;11.030;2023-05-07T01:03:01;5.40;;;3.17;;
20397;SDS011;10358;49.590;11.030;2023-05-07T01:05:27;9.40;;;3.37;;
20397;SDS011;10358;49.590;11.030;2023-05-07T01:07:53;7.20;;;2.97;;
20397;SDS011;10358;49.590;11.030;2023-05-07T01:10:21;8.03;;;2.80;;
20397;SDS011;10358;49.590;11.030;2023-05-07T01:12:48;5.37;;;3.10;;
20397;SDS011;10358;49.590;11.030;2023-05-07T01:15:14;7.47;;;3.27;;
20397;SDS011;10358;49.590;11.030;2023-05-07T01:17:41;4.43;;;3.00;;
20397;SDS011;10358;49.590;11.030;2023-05-07T01:20:08;4.07;;;2.90;;
20397;SDS011;10358;49.590;11.030;2023-05-07T01:22:35;4.97;;;3.10;;
20397;SDS011;10358;49.590;11.030;2023-05-07T01:25:03;7.27;;;3.40;;
20397;SDS011;10358;49.590;11.030;2023-05-07T01:27:30;7.30;;;3.70;;
20397;SDS011;10358;49.590;11.030;2023-05-07T01:29:55;9.03;;;3.70;;
20397;SDS011;10358;49.590;11.030;2023-05-07T01:32:23;4.53;;;3.13;;
20397;SDS011;10358;49.590;11.030;2023-05-07T01:35:01;5.33;;;3.13;;
20397;SDS011;10358;49.590;11.030;2023-05-07T01:37:30;6.97;;;3.03;;
20397;SDS011;10358;49.590;11.030;2023-05-07T01:39:55;5.03;;;2.97;;
20397;SDS011;10358;49.590;11.030;2023-05-07T01:42:22;5.57;;;3.20;;
20397;SDS011;10358;49.590;11.030;2023-05-07T01:44:48;5.30;;;3.37;;
20397;SDS011;10358;49.590;11.030;2023-05-07T01:47:16;5.40;;;2.83;;
20397;SDS011;10358;49.590;11.030;2023-05-07T01:49:44;4.33;;;3.00;;
20397;SDS011;10358;49.590;11.030;2023-05-07T01:52:10;3.60;;;2.90;;
20397;SDS011;10358;49.590;11.030;2023-05-07T01:54:36;5.10;;;3.50;;
20397;SDS011;10358;49.590;11.030;2023-05-07T01:57:02;10.63;;;6.37;;
20397;SDS011;10358;49.590;11.030;2023-05-07T01:59:28;6.50;;;4.17;;
20397;SDS011;10358;49.590;11.030;2023-05-07T02:01:53;6.57;;;3.30;;
20397;SDS011;10358;49.590;11.030;2023-05-07T02:04:19;4.93;;;3.10;;
20397;SDS011;10358;49.590;11.030;2023-05-07T02:06:44;6.20;;;3.00;;
20397;SDS011;10358;49.590;11.030;2023-05-07T02:09:10;7.40;;;3.20;;
20397;SDS011;10358;49.590;11.030;2023-05-07T02:11:36;5.37;;;3.10;;
20397;SDS011;10358;49.590;11.030;2023-05-07T02:17:24;6.67;;;3.43;;
20397;SDS011;10358;49.590;11.030;2023-05-07T02:19:50;5.20;;;3.53;;
20397;SDS011;10358;49.590;11.030;2023-05-07T02:22:18;6.63;;;3.60;;
20397;SDS011;10358;49.590;11.030;2023-05-07T02:24:43;8.13;;;3.47;;
20397;SDS011;10358;49.590;11.030;2023-05-07T02:27:09;5.77;;;3.77;;
20397;SDS011;10358;49.590;11.030;2023-05-07T02:29:37;3.80;;;3.33;;
20397;SDS011;10358;49.590;11.030;2023-05-07T02:32:03;4.70;;;3.03;;
20397;SDS011;10358;49.590;11.030;2023-05-07T02:34:28;4.90;;;3.07;;
20397;SDS011;10358;49.590;11.030;2023-05-07T02:36:54;6.27;;;3.27;;
20397;SDS011;10358;49.590;11.030;2023-05-07T02:39:20;4.97;;;3.00;;
20397;SDS011;10358;49.590;11.030;2023-05-07T02:41:46;3.70;;;3.13;;
20397;SDS011;10358;49.590;11.030;2023-05-07T02:44:12;5.13;;;3.33;;
20397;SDS011;10358;49.590;11.030;2023-05-07T02:46:37;6.50;;;3.73;;
20397;SDS011;10358;49.590;11.030;2023-05-07T02:49:03;6.83;;;3.30;;
20397;SDS011;10358;49.590;11.030;2023-05-07T02:51:29;4.57;;;3.17;;
20397;SDS011;10358;49.590;11.030;2023-05-07T02:53:55;5.83;;;3.50;;
20397;SDS011;10358;49.590;11.030;2023-05-07T02:56:21;6.03;;;3.90;;
20397;SDS011;10358;49.590;11.030;2023-05-07T02:58:47;5.57;;;3.83;;
20397;SDS011;10358;49.590;11.030;2023-05-07T03:01:12;4.57;;;4.00;;
20397;SDS011;10358;49.590;11.030;2023-05-07T03:03:41;5.07;;;3.90;;
20397;SDS011;10358;49.590;11.030;2023-05-07T03:06:06;5.00;;;3.50;;
20397;SDS011;10358;49.590;11.030;2023-05-07T03:08:32;4.73;;;3.63;;
20397;SDS011;10358;49.590;11.030;2023-05-07T03:10:58;7.07;;;3.60;;
20397;SDS011;10358;49.590;11.030;2023-05-07T03:13:23;5.13;;;3.13;;
20397;SDS011;10358;49.590;11.030;2023-05-07T03:15:49;6.00;;;3.27;;
20397;SDS011;10358;49.590;11.030;2023-05-07T03:18:15;7.93;;;3.27;;
20397;SDS011;10358;49.590;11.030;2023-05-07T03:20:40;5.23;;;3.20;;
20397;SDS011;10358;49.590;11.030;2023-05-07T03:23:08;5.53;;;3.30;;
20397;SDS011;10358;49.590;11.030;2023-05-07T03:25:33;6.43;;;3.80;;
20397;SDS011;10358;49.590;11.030;2023-05-07T03:27:59;4.80;;;3.63;;
20397;SDS011;10358;49.590;11.030;2023-05-07T03:30:24;5.63;;;3.60;;
20397;SDS011;10358;49.590;11.030;2023-05-07T03:32:50;6.03;;;4.23;;
20397;SDS011;10358;49.590;11.030;2023-05-07T03:35:15;7.63;;;4.10;;
20397;SDS011;10358;49.590;11.030;2023-05-07T03:37:41;8.47;;;4.27;;
20397;SDS011;10358;49.590;11.030;2023-05-07T03:40:07;4.93;;;4.10;;
20397;SDS011;10358;49.590;11.030;2023-05-07T03:42:35;6.07;;;4.50;;
20397;SDS011;10358;49.590;11.030;2023-05-07T03:45:00;6.00;;;4.50;;
20397;SDS011;10358;49.590;11.030;2023-05-07T03:47:26;6.30;;;4.60;;
20397;SDS011;10358;49.590;11.030;2023-05-07T03:49:52;9.37;;;4.97;;
20397;SDS011;10358;49.590;11.030;2023-05-07T03:52:18;6.97;;;4.50;;
20397;SDS011;10358;49.590;11.030;2023-05-07T03:54:48;6.57;;;4.23;;
20397;SDS011;10358;49.590;11.030;2023-05-07T03:57:14;6.77;;;4.40;;
20397;SDS011;10358;49.590;11.030;2023-05-07T03:59:40;5.97;;;4.47;;
20397;SDS011;10358;49.590;11.030;2023-05-07T04:02:05;4.83;;;4.10;;
20397;SDS011;10358;49.590;11.030;2023-05-07T04:04:31;6.40;;;4.40;;
20397;SDS011;10358;49.590;11.030;2023-05-07T04:06:57;6.50;;;4.30;;
20397;SDS011;10358;49.590;11.030;2023-05-07T04:09:24;6.30;;;4.70;;
20397;SDS011;10358;49.590;11.030;2023-05-07T04:11:50;5.90;;;4.93;;
20397;SDS011;10358;49.590;11.030;2023-05-07T04:14:15;6.83;;;4.90;;
20397;SDS011;10358;49.590;11.030;2023-05-07T04:16:41;5.57;;;4.80;;
20397;SDS011;10358;49.590;11.030;2023-05-07T04:19:06;7.70;;;5.50;;
20397;SDS011;10358;49.590;11.030;2023-05-07T04:21:32;7.40;;;5.50;;
20397;SDS011;10358;49.590;11.030;2023-05-07T04:24:00;7.13;;;5.30;;
20397;SDS011;10358;49.590;11.030;2023-05-07T04:26:28;5.83;;;4.87;;
20397;SDS011;10358;49.590;11.030;2023-05-07T04:28:54;7.97;;;5.23;;
20397;SDS011;10358;49.590;11.030;2023-05-07T04:31:20;10.13;;;5.20;;
20397;SDS011;10358;49.590;11.030;2023-05-07T04:33:45;5.63;;;4.67;;
20397;SDS011;10358;49.590;11.030;2023-05-07T04:36:11;5.87;;;4.50;;
20397;SDS011;10358;49.590;11.030;2023-05-07T04:38:39;6.20;;;4.87;;
20397;SDS011;10358;49.590;11.030;2023-05-07T04:41:05;8.23;;;6.07;;
20397;SDS011;10358;49.590;11.030;2023-05-07T04:43:31;8.60;;;5.40;;
20397;SDS011;10358;49.590;11.030;2023-05-07T04:45:57;8.50;;;5.30;;
20397;SDS011;10358;49.590;11.030;2023-05-07T04:48:22;10.07;;;5.40;;
20397;SDS011;10358;49.590;11.030;2023-05-07T04:50:49;6.90;;;5.33;;
20397;SDS011;10358;49.590;11.030;2023-05-07T04:53:15;6.43;;;4.70;;
20397;SDS011;10358;49.590;11.030;2023-05-07T04:55:43;8.10;;;4.70;;
20397;SDS011;10358;49.590;11.030;2023-05-07T04:58:10;9.33;;;4.90;;
20397;SDS011;10358;49.590;11.030;2023-05-07T05:00:36;8.20;;;5.53;;
20397;SDS011;10358;49.590;11.030;2023-05-07T05:03:03;5.83;;;4.83;;
20397;SDS011;10358;49.590;11.030;2023-05-07T05:05:30;7.07;;;5.43;;
20397;SDS011;10358;49.590;11.030;2023-05-07T05:07:55;7.37;;;4.73;;
20397;SDS011;10358;49.590;11.030;2023-05-07T05:10:21;6.87;;;5.17;;
20397;SDS011;10358;49.590;11.030;2023-05-07T05:12:52;8.70;;;5.70;;
20397;SDS011;10358;49.590;11.030;2023-05-07T05:15:18;7.27;;;5.50;;
20397;SDS011;10358;49.590;11.030;2023-05-07T05:17:43;8.50;;;5.80;;
20397;SDS011;10358;49.590;11.030;2023-05-07T05:20:09;12.10;;;5.60;;
20397;SDS011;10358;49.590;11.030;2023-05-07T05:22:36;7.27;;;5.53;;
20397;SDS011;10358;49.590;11.030;2023-05-07T05:25:02;7.85;;;5.93;;
20397;SDS011;10358;49.590;11.030;2023-05-07T05:27:28;9.00;;;6.03;;
20397;SDS011;10358;49.590;11.030;2023-05-07T05:29:54;8.73;;;5.90;;
20397;SDS011;10358;49.590;11.030;2023-05-07T05:32:20;7.72;;;6.25;;
20397;SDS011;10358;49.590;11.030;2023-05-07T05:34:45;7.80;;;6.20;;
20397;SDS011;10358;49.590;11.030;2023-05-07T05:37:11;9.95;;;6.20;;
20397;SDS011;10358;49.590;11.030;2023-05-07T05:39:37;10.77;;;6.40;;
20397;SDS011;10358;49.590;11.030;2023-05-07T05:42:02;9.77;;;6.77;;
20397;SDS011;10358;49.590;11.030;2023-05-07T05:44:30;9.80;;;7.10;;
20397;SDS011;10358;49.590;11.030;2023-05-07T05:46:56;7.87;;;6.17;;
20397;SDS011;10358;49.590;11.030;2023-05-07T05:49:24;9.27;;;6.80;;
20397;SDS011;10358;49.590;11.030;2023-05-07T05:51:50;9.30;;;6.90;;
20397;SDS011;10358;49.590;11.030;2023-05-07T05:54:15;9.83;;;7.00;;
20397;SDS011;10358;49.590;11.030;2023-05-07T05:56:41;10.40;;;6.82;;
20397;SDS011;10358;49.590;11.030;2023-05-07T05:59:07;9.57;;;6.80;;
20397;SDS011;10358;49.590;11.030;2023-05-07T06:01:32;11.80;;;7.13;;
20397;SDS011;10358;49.590;11.030;2023-05-07T06:03:58;9.67;;;6.33;;
20397;SDS011;10358;49.590;11.030;2023-05-07T06:06:23;9.32;;;6.90;;
20397;SDS011;10358;49.590;11.030;2023-05-07T06:08:49;9.93;;;5.80;;
20397;SDS011;10358;49.590;11.030;2023-05-07T06:11:15;11.35;;;5.93;;
20397;SDS011;10358;49.590;11.030;2023-05-07T06:13:48;10.18;;;6.32;;
20397;SDS011;10358;49.590;11.030;2023-05-07T06:16:14;9.07;;;6.35;;
20397;SDS011;10358;49.590;11.030;2023-05-07T06:18:40;10.18;;;6.25;;
20397;SDS011;10358;49.590;11.030;2023-05-07T06:21:05;9.18;;;6.05;;
20397;SDS011;10358;49.590;11.030;2023-05-07T06:23:31;9.52;;;6.68;;
20397;SDS011;10358;49.590;11.030;2023-05-07T06:25:57;10.80;;;6.32;;
20397;SDS011;10358;49.590;11.030;2023-05-07T06:28:22;10.27;;;6.07;;
20397;SDS011;10358;49.590;11.030;2023-05-07T06:30:48;8.60;;;6.25;;
20397;SDS011;10358;49.590;11.030;2023-05-07T06:33:15;8.80;;;6.20;;
20397;SDS011;10358;49.590;11.030;2023-05-07T06:35:41;10.23;;;5.75;;
20397;SDS011;10358;49.590;11.030;2023-05-07T06:38:06;8.35;;;6.20;;
20397;SDS011;10358;49.590;11.030;2023-05-07T06:40:32;8.95;;;5.68;;
20397;SDS011;10358;49.590;11.030;2023-05-07T06:42:57;9.75;;;6.35;;
20397;SDS011;10358;49.590;11.030;2023-05-07T06:45:23;8.65;;;6.32;;
20397;SDS011;10358;49.590;11.030;2023-05-07T06:47:50;7.95;;;6.07;;
20397;SDS011;10358;49.590;11.030;2023-05-07T06:50:15;9.85;;;5.72;;
20397;SDS011;10358;49.590;11.030;2023-05-07T06:52:42;9.40;;;5.75;;
20397;SDS011;10358;49.590;11.030;2023-05-07T06:55:14;7.63;;;5.70;;
20397;SDS011;10358;49.590;11.030;2023-05-07T06:57:42;9.05;;;5.45;;
20397;SDS011;10358;49.590;11.030;2023-05-07T07:00:10;8.00;;;5.78;;
20397;SDS011;10358;49.590;11.030;2023-05-07T07:02:36;8.73;;;5.80;;
20397;SDS011;10358;49.590;11.030;2023-05-07T07:05:02;8.27;;;6.05;;
20397;SDS011;10358;49.590;11.030;2023-05-07T07:07:28;9.55;;;5.82;;
20397;SDS011;10358;49.590;11.030;2023-05-07T07:09:53;9.50;;;5.72;;
20397;SDS011;10358;49.590;11.030;2023-05-07T07:12:20;9.93;;;6.13;;
20397;SDS011;10358;49.590;11.030;2023-05-07T07:14:45;9.32;;;5.55;;
20397;SDS011;10358;49.590;11.030;2023-05-07T07:17:11;7.95;;;5.35;;
20397;SDS011;10358;49.590;11.030;2023-05-07T07:19:36;8.38;;;5.70;;
20397;SDS011;10358;49.590;11.030;2023-05-07T07:22:07;8.27;;;5.25;;
20397;SDS011;10358;49.590;11.030;2023-05-07T07:24:33;8.60;;;5.80;;
20397;SDS011;10358;49.590;11.030;2023-05-07T07:27:01;8.52;;;5.38;;
20397;SDS011;10358;49.590;11.030;2023-05-07T07:29:26;8.77;;;5.90;;
20397;SDS011;10358;49.590;11.030;2023-05-07T07:31:52;9.75;;;5.80;;
20397;SDS011;10358;49.590;11.030;2023-05-07T07:34:17;11.20;;;5.32;;
20397;SDS011;10358;49.590;11.030;2023-05-07T07:36:43;7.10;;;5.07;;
20397;SDS011;10358;49.590;11.030;2023-05-07T07:39:13;8.23;;;5.40;;
20397;SDS011;10358;49.590;11.030;2023-05-07T07:41:39;7.13;;;4.93;;
20397;SDS011;10358;49.590;11.030;2023-05-07T07:44:04;7.07;;;5.13;;
20397;SDS011;10358;49.590;11.030;2023-05-07T07:46:32;9.63;;;5.57;;
20397;SDS011;10358;49.590;11.030;2023-05-07T07:48:58;7.28;;;4.78;;
20397;SDS011;10358;49.590;11.030;2023-05-07T07:51:24;9.20;;;5.25;;
20397;SDS011;10358;49.590;11.030;2023-05-07T07:53:52;9.43;;;4.65;;
20397;SDS011;10358;49.590;11.030;2023-05-07T07:56:22;6.20;;;5.00;;
20397;SDS011;10358;49.590;11.030;2023-05-07T07:58:48;7.88;;;4.90;;
20397;SDS011;10358;49.590;11.030;2023-05-07T08:01:14;7.45;;;4.70;;
20397;SDS011;10358;49.590;11.030;2023-05-07T08:03:39;7.68;;;5.20;;
20397;SDS011;10358;49.590;11.030;2023-05-07T08:06:05;6.78;;;4.72;;
20397;SDS011;10358;49.590;11.030;2023-05-07T08:08:31;8.10;;;5.20;;
20397;SDS011;10358;49.590;11.030;2023-05-07T08:10:56;7.55;;;5.53;;
20397;SDS011;10358;49.590;11.030;2023-05-07T08:13:25;6.15;;;4.57;;
20397;SDS011;10358;49.590;11.030;2023-05-07T08:15:50;8.00;;;4.75;;
20397;SDS011;10358;49.590;11.030;2023-05-07T08:18:16;9.70;;;4.88;;
20397;SDS011;10358;49.590;11.030;2023-05-07T08:20:42;6.68;;;4.43;;
20397;SDS011;10358;49.590;11.030;2023-05-07T08:23:07;6.40;;;4.63;;
20397;SDS011;10358;49.590;11.030;2023-05-07T08:25:33;6.25;;;4.68;;
20397;SDS011;10358;49.590;11.030;2023-05-07T08:27:59;8.88;;;4.30;;
20397;SDS011;10358;49.590;11.030;2023-05-07T08:30:28;7.53;;;4.60;;
20397;SDS011;10358;49.590;11.030;2023-05-07T08:32:56;8.82;;;4.57;;
20397;SDS011;10358;49.590;11.030;2023-05-07T08:35:22;6.30;;;4.68;;
20397;SDS011;10358;49.590;11.030;2023-05-07T08:37:47;7.72;;;4.50;;
20397;SDS011;10358;49.590;11.030;2023-05-07T08:40:13;7.50;;;4.63;;
20397;SDS011;10358;49.590;11.030;2023-05-07T08:42:38;8.80;;;4.70;;
20397;SDS011;10358;49.590;11.030;2023-05-07T08:45:09;7.80;;;5.00;;
20397;SDS011;10358;49.590;11.030;2023-05-07T08:47:39;7.35;;;4.82;;
20397;SDS011;10358;49.590;11.030;2023-05-07T08:50:09;6.63;;;4.72;;
20397;SDS011;10358;49.590;11.030;2023-05-07T08:52:41;8.13;;;4.80;;
20397;SDS011;10358;49.590;11.030;2023-05-07T08:55:07;9.18;;;4.78;;
20397;SDS011;10358;49.590;11.030;2023-05-07T08:57:35;6.38;;;4.57;;
20397;SDS011;10358;49.590;11.030;2023-05-07T09:00:01;8.18;;;4.75;;
20397;SDS011;10358;49.590;11.030;2023-05-07T09:02:28;7.68;;;4.85;;
20397;SDS011;10358;49.590;11.030;2023-05-07T09:04:54;6.00;;;4.70;;
20397;SDS011;10358;49.590;11.030;2023-05-07T09:07:22;6.97;;;4.30;;
20397;SDS011;10358;49.590;11.030;2023-05-07T09:09:48;6.78;;;4.35;;
20397;SDS011;10358;49.590;11.030;2023-05-07T09:12:14;6.35;;;4.72;;
20397;SDS011;10358;49.590;11.030;2023-05-07T09:14:40;5.90;;;4.30;;
20397;SDS011;10358;49.590;11.030;2023-05-07T09:17:08;6.55;;;4.40;;
20397;SDS011;10358;49.590;11.030;2023-05-07T09:19:33;9.45;;;4.20;;
20397;SDS011;10358;49.590;11.030;2023-05-07T09:21:59;10.85;;;4.28;;
20397;SDS011;10358;49.590;11.030;2023-05-07T09:24:26;6.18;;;4.28;;
20397;SDS011;10358;49.590;11.030;2023-05-07T09:26:53;6.18;;;4.00;;
20397;SDS011;10358;49.590;11.030;2023-05-07T09:29:20;9.77;;;4.13;;
20397;SDS011;10358;49.590;11.030;2023-05-07T09:31:46;5.40;;;3.72;;
20397;SDS011;10358;49.590;11.030;2023-05-07T09:34:11;5.38;;;3.67;;
20397;SDS011;10358;49.590;11.030;2023-05-07T09:36:37;6.35;;;4.07;;
20397;SDS011;10358;49.590;11.030;2023-05-07T09:39:02;6.70;;;4.57;;
20397;SDS011;10358;49.590;11.030;2023-05-07T09:41:29;8.32;;;3.92;;
20397;SDS011;10358;49.590;11.030;2023-05-07T09:43:57;8.20;;;4.53;;
20397;SDS011;10358;49.590;11.030;2023-05-07T09:46:30;5.13;;;3.80;;
20397;SDS011;10358;49.590;11.030;2023-05-07T09:48:57;5.72;;;3.80;;
20397;SDS011;10358;49.590;11.030;2023-05-07T09:51:25;7.53;;;4.43;;
20397;SDS011;10358;49.590;11.030;2023-05-07T09:53:57;7.30;;;4.32;;
20397;SDS011;10358;49.590;11.030;2023-05-07T09:56:25;6.78;;;3.90;;
20397;SDS011;10358;49.590;11.030;2023-05-07T09:58:59;5.88;;;3.97;;
20397;SDS011;10358;49.590;11.030;2023-05-07T10:01:26;5.65;;;3.85;;
20397;SDS011;10358;49.590;11.030;2023-05-07T10:03:55;5.82;;;4.00;;
20397;SDS011;10358;49.590;11.030;2023-05-07T10:06:23;4.97;;;3.83;;
20397;SDS011;10358;49.590;11.030;2023-05-07T10:09:05;7.43;;;4.30;;
20397;SDS011;10358;49.590;11.030;2023-05-07T10:11:38;7.18;;;4.20;;
20397;SDS011;10358;49.590;11.030;2023-05-07T10:14:16;9.05;;;3.80;;
20397;SDS011;10358;49.590;11.030;2023-05-07T10:16:42;7.10;;;3.90;;
20397;SDS011;10358;49.590;11.030;2023-05-07T10:19:09;5.45;;;3.83;;
20397;SDS011;10358;49.590;11.030;2023-05-07T10:21:38;5.50;;;3.92;;
20397;SDS011;10358;49.590;11.030;2023-05-07T10:24:12;6.35;;;3.80;;
20397;SDS011;10358;49.590;11.030;2023-05-07T10:26:45;5.18;;;3.80;;
20397;SDS011;10358;49.590;11.030;2023-05-07T10:32:19;5.30;;;3.92;;
20397;SDS011;10358;49.590;11.030;2023-05-07T10:35:02;7.53;;;4.13;;
20397;SDS011;10358;49.590;11.030;2023-05-07T10:37:29;6.35;;;4.13;;
20397;SDS011;10358;49.590;11.030;2023-05-07T10:39:55;6.35;;;3.72;;
20397;SDS011;10358;49.590;11.030;2023-05-07T10:42:22;7.05;;;3.65;;
20397;SDS011;10358;49.590;11.030;2023-05-07T10:44:48;7.00;;;3.45;;
20397;SDS011;10358;49.590;11.030;2023-05-07T10:47:15;4.20;;;3.35;;
20397;SDS011;10358;49.590;11.030;2023-05-07T10:52:16;5.95;;;3.60;;
20397;SDS011;10358;49.590;11.030;2023-05-07T10:54:45;6.82;;;3.53;;
20397;SDS011;10358;49.590;11.030;2023-05-07T11:00:40;5.53;;;3.53;;
20397;SDS011;10358;49.590;11.030;2023-05-07T11:05:28;5.22;;;3.50;;
20397;SDS011;10358;49.590;11.030;2023-05-07T11:08:04;5.82;;;3.42;;
20397;SDS011;10358;49.590;11.030;2023-05-07T11:10:49;7.80;;;3.50;;
20397;SDS011;10358;49.590;11.030;2023-05-07T11:16:22;4.82;;;3.00;;
20397;SDS011;10358;49.590;11.030;2023-05-07T11:18:50;4.65;;;3.35;;
20397;SDS011;10358;49.590;11.030;2023-05-07T11:21:39;4.30;;;3.05;;
20397;SDS011;10358;49.590;11.030;2023-05-07T11:24:11;6.32;;;3.38;;
20397;SDS011;10358;49.590;11.030;2023-05-07T11:26:44;3.88;;;3.17;;
20397;SDS011;10358;49.590;11.030;2023-05-07T11:29:15;5.40;;;3.10;;
20397;SDS011;10358;49.590;11.030;2023-05-07T11:31:44;4.40;;;2.40;;
20397;SDS011;10358;49.590;11.030;2023-05-07T11:34:22;6.05;;;2.78;;
20397;SDS011;10358;49.590;11.030;2023-05-07T11:36:53;4.03;;;2.80;;
20397;SDS011;10358;49.590;11.030;2023-05-07T11:39:26;4.28;;;3.05;;
20397;SDS011;10358;49.590;11.030;2023-05-07T11:41:53;3.53;;;2.65;;
20397;SDS011;10358;49.590;11.030;2023-05-07T11:44:19;4.35;;;2.65;;
20397;SDS011;10358;49.590;11.030;2023-05-07T11:46:44;4.43;;;2.42;;
20397;SDS011;10358;49.590;11.030;2023-05-07T11:49:11;3.95;;;2.80;;
20397;SDS011;10358;49.590;11.030;2023-05-07T11:51:37;3.95;;;2.60;;
20397;SDS011;10358;49.590;11.030;2023-05-07T11:54:04;3.88;;;2.40;;
20397;SDS011;10358;49.590;11.030;2023-05-07T11:56:36;3.15;;;2.40;;
20397;SDS011;10358;49.590;11.030;2023-05-07T11:59:04;4.57;;;2.85;;
20397;SDS011;10358;49.590;11.030;2023-05-07T12:01:30;5.47;;;2.70;;
20397;SDS011;10358;49.590;11.030;2023-05-07T12:07:20;3.03;;;2.60;;
20397;SDS011;10358;49.590;11.030;2023-05-07T12:09:48;5.10;;;2.90;;
20397;SDS011;10358;49.590;11.030;2023-05-07T12:12:14;5.72;;;3.20;;
20397;SDS011;10358;49.590;11.030;2023-05-07T12:14:43;4.03;;;2.80;;
20397;SDS011;10358;49.590;11.030;2023-05-07T12:17:10;6.05;;;2.83;;
20397;SDS011;10358;49.590;11.030;2023-05-07T12:19:37;4.53;;;3.00;;
20397;SDS011;10358;49.590;11.030;2023-05-07T12:22:05;3.83;;;2.97;;
20397;SDS011;10358;49.590;11.030;2023-05-07T12:24:44;6.15;;;2.92;;
20397;SDS011;10358;49.590;11.030;2023-05-07T12:27:13;6.72;;;2.60;;
20397;SDS011;10358;49.590;11.030;2023-05-07T12:29:43;6.15;;;2.85;;
20397;SDS011;10358;49.590;11.030;2023-05-07T12:32:14;4.07;;;2.78;;
20397;SDS011;10358;49.590;11.030;2023-05-07T12:34:41;5.97;;;2.88;;
20397;SDS011;10358;49.590;11.030;2023-05-07T12:37:07;5.57;;;2.95;;
20397;SDS011;10358;49.590;11.030;2023-05-07T12:39:32;5.07;;;2.97;;
20397;SDS011;10358;49.590;11.030;2023-05-07T12:41:58;4.47;;;2.65;;
20397;SDS011;10358;49.590;11.030;2023-05-07T12:44:25;3.72;;;2.33;;
20397;SDS011;10358;49.590;11.030;2023-05-07T12:46:54;6.00;;;3.20;;
20397;SDS011;10358;49.590;11.030;2023-05-07T12:49:19;3.97;;;2.60;;
20397;SDS011;10358;49.590;11.030;2023-05-07T12:51:48;3.35;;;2.30;;
20397;SDS011;10358;49.590;11.030;2023-05-07T12:54:37;8.80;;;2.85;;
20397;SDS011;10358;49.590;11.030;2023-05-07T12:57:08;6.60;;;2.58;;
20397;SDS011;10358;49.590;11.030;2023-05-07T12:59:38;5.68;;;3.08;;
20397;SDS011;10358;49.590;11.030;2023-05-07T13:02:05;4.68;;;2.25;;
20397;SDS011;10358;49.590;11.030;2023-05-07T13:04:31;4.35;;;2.40;;
20397;SDS011;10358;49.590;11.030;2023-05-07T13:06:57;3.35;;;2.67;;
20397;SDS011;10358;49.590;11.030;2023-05-07T13:09:23;4.18;;;2.60;;
20397;SDS011;10358;49.590;11.030;2023-05-07T13:11:49;3.25;;;2.47;;
20397;SDS011;10358;49.590;11.030;2023-05-07T13:14:15;4.50;;;2.67;;
20397;SDS011;10358;49.590;11.030;2023-05-07T13:16:40;4.57;;;2.45;;
20397;SDS011;10358;49.590;11.030;2023-05-07T13:19:06;7.18;;;2.90;;
20397;SDS011;10358;49.590;11.030;2023-05-07T13:21:32;3.40;;;2.50;;
20397;SDS011;10358;49.590;11.030;2023-05-07T13:23:57;3.53;;;2.47;;
20397;SDS011;10358;49.590;11.030;2023-05-07T13:26:23;2.97;;;2.53;;
20397;SDS011;10358;49.590;11.030;2023-05-07T13:28:49;3.70;;;2.60;;
20397;SDS011;10358;49.590;11.030;2023-05-07T13:31:15;3.42;;;2.35;;
20397;SDS011;10358;49.590;11.030;2023-05-07T13:33:42;4.47;;;2.45;;
20397;SDS011;10358;49.590;11.030;2023-05-07T13:36:07;3.60;;;2.30;;
20397;SDS011;10358;49.590;11.030;2023-05-07T13:38:33;4.63;;;2.70;;
20397;SDS011;10358;49.590;11.030;2023-05-07T13:40:58;4.45;;;2.38;;
20397;SDS011;10358;49.590;11.030;2023-05-07T13:43:24;5.15;;;2.35;;
20397;SDS011;10358;49.590;11.030;2023-05-07T13:45:50;4.90;;;2.72;;
20397;SDS011;10358;49.590;11.030;2023-05-07T13:48:15;4.93;;;2.38;;
20397;SDS011;10358;49.590;11.030;2023-05-07T13:50:41;4.60;;;2.13;;
20397;SDS011;10358;49.590;11.030;2023-05-07T13:53:07;3.33;;;2.20;;
20397;SDS011;10358;49.590;11.030;2023-05-07T13:55:32;3.05;;;2.40;;
20397;SDS011;10358;49.590;11.030;2023-05-07T13:57:59;2.72;;;2.22;;
20397;SDS011;10358;49.590;11.030;2023-05-07T14:00:26;2.50;;;2.20;;
20397;SDS011;10358;49.590;11.030;2023-05-07T14:02:56;2.90;;;2.22;;
20397;SDS011;10358;49.590;11.030;2023-05-07T14:05:21;4.03;;;2.15;;
20397;SDS011;10358;49.590;11.030;2023-05-07T14:07:52;6.18;;;3.10;;
20397;SDS011;10358;49.590;11.030;2023-05-07T14:10:19;3.55;;;2.78;;
20397;SDS011;10358;49.590;11.030;2023-05-07T14:12:44;3.53;;;2.33;;
20397;SDS011;10358;49.590;11.030;2023-05-07T14:15:11;3.05;;;2.17;;
20397;SDS011;10358;49.590;11.030;2023-05-07T14:17:37;4.35;;;2.20;;
20397;SDS011;10358;49.590;11.030;2023-05-07T14:20:02;7.30;;;2.25;;
20397;SDS011;10358;49.590;11.030;2023-05-07T14:22:28;5.60;;;2.45;;
20397;SDS011;10358;49.590;11.030;2023-05-07T14:24:54;4.00;;;2.20;;
20397;SDS011;10358;49.590;11.030;2023-05-07T14:27:20;3.35;;;1.90;;
20397;SDS011;10358;49.590;11.030;2023-05-07T14:29:45;4.35;;;2.10;;
20397;SDS011;10358;49.590;11.030;2023-05-07T14:32:15;3.15;;;2.05;;
20397;SDS011;10358;49.590;11.030;2023-05-07T14:34:44;2.80;;;2.00;;
20397;SDS011;10358;49.590;11.030;2023-05-07T14:37:10;4.90;;;2.35;;
20397;SDS011;10358;49.590;11.030;2023-05-07T14:39:36;2.67;;;2.20;;
20397;SDS011;10358;49.590;11.030;2023-05-07T14:42:02;3.58;;;1.90;;
20397;SDS011;10358;49.590;11.030;2023-05-07T14:44:27;2.30;;;1.90;;
20397;SDS011;10358;49.590;11.030;2023-05-07T14:46:54;4.63;;;2.08;;
20397;SDS011;10358;49.590;11.030;2023-05-07T14:49:20;4.22;;;2.10;;
20397;SDS011;10358;49.590;11.030;2023-05-07T14:51:46;5.20;;;2.22;;
20397;SDS011;10358;49.590;11.030;2023-05-07T14:54:12;3.03;;;2.08;;